Terminal Aerodrome Forecast
Issued by NWS

Home | Current Version | Previous Version | Text Only | Print | Product List | Glossary On
Versions: 1 2 3 4 5 6 7 8 9 10 11 12 13 14 15 16 17 18 19 20 21 22 23 24 25
000
FTUS43 KDVN 282300
TAFCID
TAF
KCID 282328Z 2900/2924 13013KT 6SM BR BKN150
     FM290600 16010KT 4SM BR OVC015
     FM290800 32018G25KT 4SM BR OVC009
     FM291400 32023G33KT P6SM OVC015=

USA.gov is the U.S. government's official web portal to all federal, state and local government web resources and services.